createdAt,value
2018-12-09T00:00:17.124Z,6.71
2018-12-09T00:01:17.129Z,6.71
2018-12-09T00:02:16.395Z,6.67
2018-12-09T00:03:16.653Z,6.64
2018-12-09T00:04:16.913Z,6.63
2018-12-09T00:05:17.181Z,6.64
2018-12-09T00:06:16.439Z,6.64
2018-12-09T00:07:16.711Z,6.64
2018-12-09T00:08:16.970Z,6.64
2018-12-09T00:09:16.230Z,6.65
2018-12-09T00:10:16.501Z,6.67
2018-12-09T00:11:16.567Z,6.67
2018-12-09T00:12:16.851Z,6.67
2018-12-09T00:13:17.132Z,6.69
2018-12-09T00:14:16.403Z,6.71
2018-12-09T00:15:16.685Z,6.69
2018-12-09T00:16:16.951Z,6.71
2018-12-09T00:17:16.228Z,6.72
2018-12-09T00:18:16.504Z,6.74
2018-12-09T00:19:16.777Z,6.75
2018-12-09T00:20:17.049Z,6.84
2018-12-09T00:21:17.095Z,6.81
2018-12-09T00:22:16.354Z,6.81
2018-12-09T00:23:16.637Z,6.84
2018-12-09T00:24:16.908Z,6.86
2018-12-09T00:25:17.174Z,6.85
2018-12-09T00:26:16.431Z,6.88
2018-12-09T00:27:16.705Z,6.82
2018-12-09T00:28:16.968Z,6.79
2018-12-09T00:29:16.232Z,6.78
2018-12-09T00:30:16.499Z,6.76
2018-12-09T00:31:16.560Z,6.79
2018-12-09T00:32:16.825Z,6.75
2018-12-09T00:33:17.103Z,6.76
2018-12-09T00:34:16.374Z,6.74
2018-12-09T00:35:16.657Z,6.75
2018-12-09T00:36:16.933Z,6.74
2018-12-09T00:37:17.199Z,6.72
2018-12-09T00:38:16.473Z,6.71
2018-12-09T00:39:16.751Z,6.76
2018-12-09T00:40:17.018Z,6.72
2018-12-09T00:41:17.089Z,6.71
2018-12-09T00:42:16.358Z,6.71
2018-12-09T00:43:16.630Z,6.71
2018-12-09T00:44:16.892Z,6.69
2018-12-09T00:45:17.158Z,6.71
2018-12-09T00:46:16.434Z,6.69
2018-12-09T00:47:16.703Z,6.68
2018-12-09T00:48:16.967Z,6.68
2018-12-09T00:49:16.252Z,6.68
2018-12-09T00:50:16.547Z,6.67
2018-12-09T00:51:16.581Z,6.68
2018-12-09T00:52:16.849Z,6.68
2018-12-09T00:53:17.119Z,6.65
2018-12-09T00:54:16.373Z,6.64
2018-12-09T00:55:16.633Z,6.65
2018-12-09T00:56:16.892Z,6.65
2018-12-09T00:57:17.154Z,6.68
2018-12-09T00:58:16.416Z,6.65
2018-12-09T00:59:16.680Z,6.68
2018-12-09T01:00:17.066Z,6.72
2018-12-09T01:01:17.010Z,6.74
2018-12-09T01:02:16.263Z,6.78
2018-12-09T01:03:16.532Z,6.78
2018-12-09T01:04:16.810Z,6.78
2018-12-09T01:05:17.082Z,6.81
2018-12-09T01:06:16.348Z,6.84
2018-12-09T01:07:16.611Z,6.86
2018-12-09T01:08:16.877Z,6.91
2018-12-09T01:09:17.140Z,6.94
2018-12-09T01:10:16.447Z,7.00
2018-12-09T01:11:16.454Z,7.02
2018-12-09T01:12:17.148Z,7.02
2018-12-09T01:13:16.418Z,7.22
2018-12-09T01:14:16.682Z,7.29
2018-12-09T01:15:16.948Z,7.24
2018-12-09T01:16:16.210Z,7.29
2018-12-09T01:17:16.729Z,7.33
2018-12-09T01:18:16.991Z,7.48
2018-12-09T01:19:16.335Z,7.55
2018-12-09T01:20:16.613Z,7.61
2018-12-09T01:21:16.662Z,7.85
2018-12-09T01:22:16.931Z,7.82
2018-12-09T01:23:17.206Z,7.88
2018-12-09T01:24:16.470Z,7.86
2018-12-09T01:25:16.746Z,7.84
2018-12-09T01:26:17.010Z,7.81
2018-12-09T01:27:16.277Z,7.88
2018-12-09T01:28:16.549Z,7.92
2018-12-09T01:29:16.836Z,7.96
2018-12-09T01:30:17.106Z,8.09
2018-12-09T01:31:17.155Z,8.22
2018-12-09T01:32:16.424Z,8.19
2018-12-09T01:33:16.702Z,8.12
2018-12-09T01:34:17.093Z,8.21
2018-12-09T01:35:16.360Z,8.23
2018-12-09T01:36:16.627Z,8.21
2018-12-09T01:37:16.307Z,8.24
2018-12-09T01:38:16.566Z,8.19
2018-12-09T01:39:16.846Z,8.19
2018-12-09T01:40:17.117Z,8.22
2018-12-09T01:41:17.160Z,8.19
2018-12-09T01:42:16.453Z,8.24
2018-12-09T01:43:16.733Z,8.18
2018-12-09T01:44:17.010Z,8.13
2018-12-09T01:45:16.289Z,8.16
2018-12-09T01:46:16.649Z,8.16
2018-12-09T01:47:16.352Z,8.23
2018-12-09T01:48:16.882Z,8.25
2018-12-09T01:49:17.163Z,8.29
2018-12-09T01:50:16.427Z,8.27
2018-12-09T01:51:16.496Z,8.39
2018-12-09T01:52:16.760Z,8.29
2018-12-09T01:53:17.042Z,8.21
2018-12-09T01:54:16.315Z,8.29
2018-12-09T01:55:16.604Z,8.27
2018-12-09T01:56:16.882Z,8.26
2018-12-09T01:57:16.641Z,8.26
2018-12-09T01:58:17.236Z,8.24
2018-12-09T01:59:16.531Z,8.29
2018-12-09T02:00:16.830Z,8.30
2018-12-09T02:01:16.863Z,8.25
2018-12-09T02:02:17.138Z,8.25
2018-12-09T02:03:16.415Z,8.29
2018-12-09T02:04:16.698Z,8.34
2018-12-09T02:05:16.985Z,8.30
2018-12-09T02:06:16.254Z,8.28
2018-12-09T02:07:17.180Z,8.23
2018-12-09T02:08:16.466Z,8.20
2018-12-09T02:09:16.754Z,8.27
2018-12-09T02:10:17.027Z,8.29
2018-12-09T02:11:17.083Z,8.40
2018-12-09T02:12:16.360Z,8.39
2018-12-09T02:13:16.630Z,8.31
2018-12-09T02:14:16.908Z,8.34
2018-12-09T02:15:17.188Z,8.30
2018-12-09T02:16:16.449Z,8.29
2018-12-09T02:17:17.120Z,8.33
2018-12-09T02:18:16.405Z,8.35
2018-12-09T02:19:16.688Z,8.23
2018-12-09T02:20:17.071Z,8.18
2018-12-09T02:21:17.116Z,8.16
2018-12-09T02:22:16.404Z,8.18
2018-12-09T02:23:16.672Z,8.15
2018-12-09T02:24:16.939Z,8.14
2018-12-09T02:25:16.214Z,8.13
2018-12-09T02:26:16.486Z,8.10
2018-12-09T02:27:16.325Z,8.22
2018-12-09T02:28:16.606Z,8.19
2018-12-09T02:29:16.863Z,8.22
2018-12-09T02:30:17.155Z,8.20
2018-12-09T02:31:17.202Z,8.22
2018-12-09T02:32:16.482Z,8.20
2018-12-09T02:33:16.761Z,8.26
2018-12-09T02:34:17.057Z,8.25
2018-12-09T02:35:16.338Z,8.28
2018-12-09T02:36:16.612Z,8.26
2018-12-09T02:37:16.881Z,8.32
2018-12-09T02:38:17.460Z,8.35
2018-12-09T02:39:16.738Z,8.41
2018-12-09T02:40:17.028Z,8.30
2018-12-09T02:41:17.072Z,8.28
2018-12-09T02:42:16.778Z,8.35
2018-12-09T02:43:17.052Z,8.40
2018-12-09T02:44:16.324Z,8.35
2018-12-09T02:45:16.619Z,8.43
2018-12-09T02:46:16.245Z,8.43
2018-12-09T02:47:16.536Z,8.48
2018-12-09T02:48:16.830Z,8.50
2018-12-09T02:49:17.116Z,8.46
2018-12-09T02:50:16.398Z,8.40
2018-12-09T02:51:16.462Z,8.39
2018-12-09T02:52:16.843Z,8.41
2018-12-09T02:53:17.113Z,8.39
2018-12-09T02:54:16.376Z,8.39
2018-12-09T02:55:16.648Z,8.41
2018-12-09T02:56:16.223Z,8.44
2018-12-09T02:57:16.502Z,8.47
2018-12-09T02:58:16.784Z,8.46
2018-12-09T02:59:17.061Z,8.43
2018-12-09T03:00:16.342Z,8.48
2018-12-09T03:01:16.393Z,8.47
2018-12-09T03:02:16.688Z,8.51
2018-12-09T03:03:17.228Z,8.47
2018-12-09T03:04:16.493Z,8.54
2018-12-09T03:05:16.772Z,8.58
2018-12-09T03:06:16.663Z,8.53
2018-12-09T03:07:16.950Z,8.44
2018-12-09T03:08:16.222Z,8.46
2018-12-09T03:09:16.490Z,8.57
2018-12-09T03:10:16.765Z,8.69
2018-12-09T03:11:16.828Z,8.74
2018-12-09T03:12:17.178Z,8.69
2018-12-09T03:13:16.459Z,8.67
2018-12-09T03:14:16.731Z,8.64
2018-12-09T03:15:17.002Z,8.65
2018-12-09T03:16:16.265Z,8.68
2018-12-09T03:17:16.550Z,8.67
2018-12-09T03:18:16.841Z,8.63
2018-12-09T03:19:17.116Z,8.67
2018-12-09T03:20:16.393Z,8.69
2018-12-09T03:21:16.452Z,8.72
2018-12-09T03:22:16.726Z,8.78
2018-12-09T03:23:17.005Z,8.85
2018-12-09T03:24:16.278Z,8.84
2018-12-09T03:25:17.192Z,8.91
2018-12-09T03:26:16.478Z,9.01
2018-12-09T03:27:16.741Z,8.92
2018-12-09T03:28:17.002Z,8.90
2018-12-09T03:29:16.560Z,8.84
2018-12-09T03:30:16.843Z,8.76
2018-12-09T03:31:16.894Z,8.75
2018-12-09T03:32:17.200Z,8.63
2018-12-09T03:33:16.488Z,8.60
2018-12-09T03:34:16.770Z,8.57
2018-12-09T03:35:16.741Z,8.56
2018-12-09T03:36:17.018Z,8.67
2018-12-09T03:37:16.291Z,8.64
2018-12-09T03:38:16.566Z,8.53
2018-12-09T03:39:16.842Z,8.45
2018-12-09T03:40:17.136Z,8.40
2018-12-09T03:41:17.181Z,8.40
2018-12-09T03:42:16.450Z,8.43
2018-12-09T03:43:16.725Z,8.44
2018-12-09T03:44:16.416Z,8.31
2018-12-09T03:45:16.697Z,8.29
2018-12-09T03:46:16.964Z,8.28
2018-12-09T03:47:16.237Z,8.21
2018-12-09T03:48:16.506Z,8.34
2018-12-09T03:49:16.779Z,8.33
2018-12-09T03:50:17.055Z,8.30
2018-12-09T03:51:17.123Z,8.25
2018-12-09T03:52:16.410Z,8.19
2018-12-09T03:53:16.682Z,8.11
2018-12-09T03:54:16.417Z,8.08
2018-12-09T03:55:16.729Z,8.11
2018-12-09T03:56:17.000Z,8.05
2018-12-09T03:57:16.274Z,8.00
2018-12-09T03:58:16.536Z,7.98
2018-12-09T03:59:17.156Z,8.00
2018-12-09T04:00:16.438Z,7.92
2018-12-09T04:01:16.475Z,7.80
2018-12-09T04:02:16.750Z,7.84
2018-12-09T04:03:16.515Z,7.75
2018-12-09T04:04:16.786Z,7.77
2018-12-09T04:05:17.094Z,7.76
2018-12-09T04:06:16.380Z,7.75
2018-12-09T04:07:16.684Z,7.71
2018-12-09T04:08:16.953Z,7.64
2018-12-09T04:09:16.236Z,7.66
2018-12-09T04:10:16.531Z,7.66
2018-12-09T04:11:16.567Z,7.67
2018-12-09T04:12:16.846Z,7.64
2018-12-09T04:13:17.121Z,7.63
2018-12-09T04:14:16.405Z,7.61
2018-12-09T04:15:16.668Z,7.47
2018-12-09T04:16:16.942Z,7.41
2018-12-09T04:17:16.218Z,7.34
2018-12-09T04:18:16.492Z,7.15
2018-12-09T04:19:16.768Z,7.06
2018-12-09T04:20:17.061Z,7.02
2018-12-09T04:21:17.122Z,6.92
2018-12-09T04:22:16.863Z,6.85
2018-12-09T04:23:17.144Z,6.95
2018-12-09T04:24:16.420Z,6.89
2018-12-09T04:25:16.679Z,6.75
2018-12-09T04:26:16.940Z,6.74
2018-12-09T04:27:17.212Z,6.88
2018-12-09T04:28:16.499Z,6.88
2018-12-09T04:29:16.767Z,6.85
2018-12-09T04:30:17.055Z,6.88
2018-12-09T04:31:17.100Z,6.90
2018-12-09T04:32:16.387Z,6.98
2018-12-09T04:33:16.661Z,6.97
2018-12-09T04:34:16.953Z,6.95
2018-12-09T04:35:16.216Z,6.98
2018-12-09T04:36:16.499Z,6.98
2018-12-09T04:37:16.792Z,6.97
2018-12-09T04:38:17.058Z,6.98
2018-12-09T04:39:16.325Z,6.98
2018-12-09T04:40:16.621Z,7.01
2018-12-09T04:41:16.665Z,7.01
2018-12-09T04:42:16.939Z,6.97
2018-12-09T04:43:16.228Z,6.98
2018-12-09T04:44:16.494Z,6.98
2018-12-09T04:45:16.752Z,7.01
2018-12-09T04:46:17.029Z,7.11
2018-12-09T04:47:16.304Z,7.15
2018-12-09T04:48:16.572Z,7.03
2018-12-09T04:49:16.848Z,6.91
2018-12-09T04:50:16.714Z,6.91
2018-12-09T04:51:16.728Z,6.65
2018-12-09T04:52:16.993Z,6.65
2018-12-09T04:53:16.272Z,6.40
2018-12-09T04:54:16.561Z,6.37
2018-12-09T04:55:16.871Z,6.36
2018-12-09T04:56:16.219Z,6.33
2018-12-09T04:57:16.486Z,6.16
2018-12-09T04:58:16.759Z,6.12
2018-12-09T04:59:17.034Z,5.98
2018-12-09T05:00:16.915Z,6.02
2018-12-09T05:01:16.928Z,6.13
2018-12-09T05:02:17.211Z,6.13
2018-12-09T05:03:16.463Z,6.17
2018-12-09T05:04:16.737Z,6.14
2018-12-09T05:05:17.115Z,6.13
2018-12-09T05:06:16.379Z,6.21
2018-12-09T05:07:16.654Z,6.09
2018-12-09T05:08:16.938Z,6.09
2018-12-09T05:09:17.204Z,6.05
2018-12-09T05:10:16.496Z,6.16
2018-12-09T05:11:16.541Z,6.20
2018-12-09T05:12:16.830Z,6.16
2018-12-09T05:13:17.101Z,6.24
2018-12-09T05:14:16.376Z,6.27
2018-12-09T05:15:16.662Z,6.31
2018-12-09T05:16:16.933Z,6.31
2018-12-09T05:17:16.232Z,6.30
2018-12-09T05:18:16.521Z,6.42
2018-12-09T05:19:16.433Z,6.36
2018-12-09T05:20:16.711Z,6.33
2018-12-09T05:21:16.760Z,6.45
2018-12-09T05:22:17.029Z,6.48
2018-12-09T05:23:16.296Z,6.57
2018-12-09T05:24:16.569Z,6.59
2018-12-09T05:25:16.849Z,6.72
2018-12-09T05:26:17.127Z,6.63
2018-12-09T05:27:16.413Z,6.63
2018-12-09T05:28:17.119Z,6.65
2018-12-09T05:29:16.397Z,6.75
2018-12-09T05:30:16.675Z,6.83
2018-12-09T05:31:16.745Z,6.90
2018-12-09T05:32:17.020Z,6.91
2018-12-09T05:33:16.299Z,6.94
2018-12-09T05:34:16.586Z,7.04
2018-12-09T05:35:16.859Z,7.05
2018-12-09T05:36:17.127Z,7.08
2018-12-09T05:37:16.411Z,7.11
2018-12-09T05:38:16.689Z,7.07
2018-12-09T05:39:16.963Z,7.11
2018-12-09T05:40:16.258Z,7.07
2018-12-09T05:41:16.300Z,7.08
2018-12-09T05:42:16.575Z,7.04
2018-12-09T05:43:16.853Z,7.05
2018-12-09T05:44:17.123Z,7.02
2018-12-09T05:45:16.400Z,7.10
2018-12-09T05:46:16.665Z,7.02
2018-12-09T05:47:16.353Z,7.06
2018-12-09T05:48:16.631Z,6.96
2018-12-09T05:49:16.904Z,6.92
2018-12-09T05:50:17.179Z,6.94
2018-12-09T05:51:16.268Z,6.94
2018-12-09T05:52:16.541Z,6.85
2018-12-09T05:53:16.817Z,6.89
2018-12-09T05:54:17.106Z,6.86
2018-12-09T05:55:16.373Z,6.86
2018-12-09T05:56:16.277Z,6.91
2018-12-09T05:57:16.545Z,6.93
2018-12-09T05:58:16.827Z,6.94
2018-12-09T05:59:17.110Z,6.97
2018-12-09T06:00:16.398Z,6.94
2018-12-09T06:01:16.431Z,6.89
2018-12-09T06:02:16.721Z,6.85
2018-12-09T06:03:16.987Z,6.89
2018-12-09T06:04:16.257Z,6.91
2018-12-09T06:05:17.016Z,6.91
2018-12-09T06:06:16.288Z,6.90
2018-12-09T06:07:16.555Z,6.89
2018-12-09T06:08:16.838Z,6.92
2018-12-09T06:09:17.143Z,6.98
2018-12-09T06:10:16.445Z,6.95
2018-12-09T06:11:16.471Z,6.95
2018-12-09T06:12:16.735Z,6.95
2018-12-09T06:13:17.007Z,6.95
2018-12-09T06:14:16.286Z,6.93
2018-12-09T06:15:16.549Z,6.89
2018-12-09T06:16:16.827Z,6.88
2018-12-09T06:17:17.097Z,6.84
2018-12-09T06:18:16.379Z,6.89
2018-12-09T06:19:16.648Z,6.86
2018-12-09T06:20:16.929Z,6.91
2018-12-09T06:21:16.980Z,6.93
2018-12-09T06:22:16.253Z,6.91
2018-12-09T06:23:16.515Z,6.91
2018-12-09T06:24:16.471Z,6.86
2018-12-09T06:25:16.745Z,6.88
2018-12-09T06:26:17.062Z,6.90
2018-12-09T06:27:16.343Z,6.90
2018-12-09T06:28:16.626Z,6.88
2018-12-09T06:29:16.899Z,6.86
2018-12-09T06:30:17.192Z,6.84
2018-12-09T06:31:16.231Z,6.86
2018-12-09T06:32:16.520Z,6.80
2018-12-09T06:33:16.610Z,6.79
2018-12-09T06:34:16.876Z,6.77
2018-12-09T06:35:17.173Z,6.80
2018-12-09T06:36:16.469Z,6.76
2018-12-09T06:37:16.748Z,6.76
2018-12-09T06:38:17.024Z,6.86
2018-12-09T06:39:16.306Z,6.90
2018-12-09T06:40:16.599Z,6.94
2018-12-09T06:41:16.710Z,6.92
2018-12-09T06:42:16.265Z,6.93
2018-12-09T06:43:16.534Z,6.93
2018-12-09T06:44:16.799Z,6.97
2018-12-09T06:45:17.069Z,6.89
2018-12-09T06:46:16.345Z,6.88
2018-12-09T06:47:16.632Z,6.88
2018-12-09T06:48:16.915Z,6.84
2018-12-09T06:49:17.743Z,6.83
2018-12-09T06:50:17.031Z,6.87
2018-12-09T06:51:17.071Z,6.80
2018-12-09T06:52:16.355Z,6.80
2018-12-09T06:53:16.632Z,6.77
2018-12-09T06:54:16.916Z,6.81
2018-12-09T06:55:17.200Z,6.68
2018-12-09T06:56:16.484Z,6.67
2018-12-09T06:57:16.762Z,6.65
2018-12-09T06:58:17.025Z,6.61
2018-12-09T06:59:16.290Z,6.61
2018-12-09T07:00:17.094Z,6.63
2018-12-09T07:01:17.143Z,6.65
2018-12-09T07:02:16.425Z,6.63
2018-12-09T07:03:16.691Z,6.60
2018-12-09T07:04:16.969Z,6.60
2018-12-09T07:05:16.255Z,6.59
2018-12-09T07:06:16.540Z,6.61
2018-12-09T07:07:16.824Z,6.61
2018-12-09T07:08:17.084Z,6.61
2018-12-09T07:09:16.773Z,6.59
2018-12-09T07:10:17.178Z,6.59
2018-12-09T07:11:16.221Z,6.55
2018-12-09T07:12:16.513Z,6.57
2018-12-09T07:13:16.786Z,6.57
2018-12-09T07:14:17.057Z,6.56
2018-12-09T07:15:16.337Z,6.65
2018-12-09T07:16:16.622Z,6.66
2018-12-09T07:17:16.894Z,6.65
2018-12-09T07:18:16.691Z,6.61
2018-12-09T07:19:16.959Z,6.61
2018-12-09T07:20:16.252Z,6.63
2018-12-09T07:21:16.294Z,6.61
2018-12-09T07:22:16.568Z,6.59
2018-12-09T07:23:16.844Z,6.61
2018-12-09T07:24:17.117Z,6.67
2018-12-09T07:25:16.393Z,6.65
2018-12-09T07:26:16.665Z,6.70
2018-12-09T07:27:16.233Z,6.70
2018-12-09T07:28:16.506Z,6.66
2018-12-09T07:29:16.792Z,6.67
2018-12-09T07:30:17.092Z,6.66
2018-12-09T07:31:17.128Z,6.72
2018-12-09T07:32:16.389Z,6.74
2018-12-09T07:33:16.664Z,6.79
2018-12-09T07:34:16.932Z,6.79
2018-12-09T07:35:17.202Z,6.83
2018-12-09T07:36:16.494Z,6.81
2018-12-09T07:37:16.759Z,6.77
2018-12-09T07:38:17.035Z,6.78
2018-12-09T07:39:16.304Z,6.80
2018-12-09T07:40:16.593Z,6.82
2018-12-09T07:41:16.640Z,6.86
2018-12-09T07:42:16.910Z,6.78
2018-12-09T07:43:17.173Z,6.82
2018-12-09T07:44:16.463Z,6.87
2018-12-09T07:45:16.751Z,6.86
2018-12-09T07:46:17.030Z,6.90
2018-12-09T07:47:16.315Z,6.78
2018-12-09T07:48:16.581Z,6.75
2018-12-09T07:49:16.845Z,6.84
2018-12-09T07:50:17.395Z,6.86
2018-12-09T07:51:17.154Z,6.86
2018-12-09T07:52:16.428Z,6.91
2018-12-09T07:53:16.693Z,6.94
2018-12-09T07:54:16.964Z,6.86
2018-12-09T07:55:16.229Z,6.95
2018-12-09T07:56:16.508Z,6.98
2018-12-09T07:57:16.764Z,6.92
2018-12-09T07:58:17.023Z,7.00
2018-12-09T07:59:16.347Z,7.00
2018-12-09T08:00:16.625Z,7.01
2018-12-09T08:01:16.670Z,7.04
2018-12-09T08:02:16.942Z,6.99
2018-12-09T08:03:17.215Z,7.02
2018-12-09T08:04:16.486Z,6.99
2018-12-09T08:05:16.748Z,7.09
2018-12-09T08:06:17.010Z,7.17
2018-12-09T08:07:16.274Z,7.19
2018-12-09T08:08:16.532Z,7.15
2018-12-09T08:09:16.798Z,7.16
2018-12-09T08:10:17.087Z,7.16
2018-12-09T08:11:17.131Z,7.16
2018-12-09T08:12:16.405Z,7.29
2018-12-09T08:13:16.670Z,7.19
2018-12-09T08:14:16.929Z,7.22
2018-12-09T08:15:17.197Z,7.23
2018-12-09T08:16:16.453Z,7.27
2018-12-09T08:17:16.714Z,7.29
2018-12-09T08:18:16.985Z,7.27
2018-12-09T08:19:16.247Z,7.31
2018-12-09T08:20:16.532Z,7.37
2018-12-09T08:21:16.577Z,7.33
2018-12-09T08:22:16.835Z,7.22
2018-12-09T08:23:17.106Z,7.30
2018-12-09T08:24:16.382Z,7.30
2018-12-09T08:25:16.654Z,7.33
2018-12-09T08:26:16.915Z,7.31
2018-12-09T08:27:17.175Z,7.35
2018-12-09T08:28:16.436Z,7.45
2018-12-09T08:29:16.798Z,7.38
2018-12-09T08:30:17.099Z,7.40
2018-12-09T08:31:17.131Z,7.54
2018-12-09T08:32:16.401Z,7.50
2018-12-09T08:33:16.656Z,7.48
2018-12-09T08:34:16.919Z,7.45
2018-12-09T08:35:17.189Z,7.45
2018-12-09T08:36:16.442Z,7.48
2018-12-09T08:37:16.700Z,7.51
2018-12-09T08:38:16.968Z,7.57
2018-12-09T08:39:16.232Z,7.51
2018-12-09T08:40:16.509Z,7.55
2018-12-09T08:41:16.573Z,7.53
2018-12-09T08:42:16.842Z,7.53
2018-12-09T08:43:17.102Z,7.51
2018-12-09T08:44:16.363Z,7.51
2018-12-09T08:45:16.629Z,7.55
2018-12-09T08:46:16.905Z,7.62
2018-12-09T08:47:17.177Z,7.64
2018-12-09T08:48:16.451Z,7.62
2018-12-09T08:49:16.715Z,7.67
2018-12-09T08:50:16.983Z,7.72
2018-12-09T08:51:17.049Z,7.74
2018-12-09T08:52:16.324Z,7.71
2018-12-09T08:53:16.591Z,7.68
2018-12-09T08:54:16.860Z,7.64
2018-12-09T08:55:17.123Z,7.71
2018-12-09T08:56:16.389Z,7.76
2018-12-09T08:57:16.651Z,7.71
2018-12-09T08:58:16.926Z,7.70
2018-12-09T08:59:17.195Z,7.71
2018-12-09T09:00:16.482Z,7.68
2018-12-09T09:01:16.544Z,7.71
2018-12-09T09:02:16.816Z,7.72
2018-12-09T09:03:17.081Z,7.74
2018-12-09T09:04:16.347Z,7.78
2018-12-09T09:05:16.608Z,7.77
2018-12-09T09:06:16.868Z,7.78
2018-12-09T09:07:17.140Z,7.78
2018-12-09T09:08:16.402Z,7.74
2018-12-09T09:09:16.670Z,7.76
2018-12-09T09:10:16.940Z,7.81
2018-12-09T09:11:16.993Z,7.83
2018-12-09T09:12:16.265Z,7.85
2018-12-09T09:13:16.523Z,7.85
2018-12-09T09:14:16.795Z,7.84
2018-12-09T09:15:17.069Z,7.84
2018-12-09T09:16:16.332Z,7.85
2018-12-09T09:17:16.617Z,7.85
2018-12-09T09:18:16.881Z,7.84
2018-12-09T09:19:17.144Z,7.86
2018-12-09T09:20:16.417Z,7.82
2018-12-09T09:21:16.458Z,7.81
2018-12-09T09:22:16.736Z,7.75
2018-12-09T09:23:16.997Z,7.78
2018-12-09T09:24:16.261Z,7.80
2018-12-09T09:25:16.537Z,7.78
2018-12-09T09:26:16.809Z,7.74
2018-12-09T09:27:17.088Z,7.81
2018-12-09T09:28:16.363Z,7.80
2018-12-09T09:29:16.646Z,7.82
2018-12-09T09:30:16.916Z,7.76
2018-12-09T09:31:16.949Z,7.78
2018-12-09T09:32:17.214Z,7.80
2018-12-09T09:33:16.492Z,7.81
2018-12-09T09:34:16.848Z,7.78
2018-12-09T09:35:17.134Z,7.78
2018-12-09T09:36:16.402Z,7.77
2018-12-09T09:37:16.670Z,7.78
2018-12-09T09:38:16.936Z,7.77
2018-12-09T09:39:17.220Z,7.77
2018-12-09T09:40:16.497Z,7.80
2018-12-09T09:41:16.558Z,7.83
2018-12-09T09:42:16.818Z,7.84
2018-12-09T09:43:17.082Z,7.82
2018-12-09T09:44:16.345Z,7.85
2018-12-09T09:45:16.617Z,7.84
2018-12-09T09:46:16.888Z,7.81
2018-12-09T09:47:17.146Z,7.82
2018-12-09T09:48:16.417Z,7.81
2018-12-09T09:49:16.680Z,7.77
2018-12-09T09:50:16.953Z,7.84
2018-12-09T09:51:16.995Z,7.85
2018-12-09T09:52:16.262Z,7.86
2018-12-09T09:53:16.524Z,7.82
2018-12-09T09:54:16.795Z,7.86
2018-12-09T09:55:17.082Z,7.89
2018-12-09T09:56:16.349Z,7.85
2018-12-09T09:57:16.627Z,7.81
2018-12-09T09:58:16.884Z,7.85
2018-12-09T09:59:17.172Z,7.81
2018-12-09T10:00:16.469Z,7.74
2018-12-09T10:01:16.472Z,7.74
2018-12-09T10:02:16.757Z,7.80
2018-12-09T10:03:17.033Z,7.80
2018-12-09T10:04:16.301Z,7.82
2018-12-09T10:05:16.584Z,7.88
2018-12-09T10:06:16.851Z,7.82
2018-12-09T10:07:17.118Z,7.85
2018-12-09T10:08:16.379Z,7.88
2018-12-09T10:09:16.641Z,7.89
2018-12-09T10:10:16.916Z,7.88
2018-12-09T10:11:16.945Z,7.89
2018-12-09T10:12:17.224Z,7.86
2018-12-09T10:13:16.498Z,7.89
2018-12-09T10:14:16.773Z,7.93
2018-12-09T10:15:17.045Z,7.91
2018-12-09T10:16:16.309Z,7.91
2018-12-09T10:17:16.568Z,7.91
2018-12-09T10:18:16.829Z,7.96
2018-12-09T10:19:17.117Z,7.93
2018-12-09T10:20:16.409Z,7.91
2018-12-09T10:21:16.465Z,7.89
2018-12-09T10:22:16.733Z,7.92
2018-12-09T10:23:16.990Z,7.92
2018-12-09T10:24:16.266Z,7.92
2018-12-09T10:25:16.532Z,7.93
2018-12-09T10:26:16.797Z,7.92
2018-12-09T10:27:17.055Z,7.88
2018-12-09T10:28:16.318Z,7.91
2018-12-09T10:29:16.578Z,7.93
2018-12-09T10:30:16.846Z,7.91
2018-12-09T10:31:16.932Z,7.86
2018-12-09T10:32:17.208Z,7.85
2018-12-09T10:33:16.475Z,7.86
2018-12-09T10:34:16.738Z,7.89
2018-12-09T10:35:17.000Z,7.84
2018-12-09T10:36:16.364Z,7.85
2018-12-09T10:37:16.630Z,7.86
2018-12-09T10:38:16.891Z,7.86
2018-12-09T10:39:17.158Z,7.85
2018-12-09T10:40:16.437Z,7.89
2018-12-09T10:41:16.505Z,7.82
2018-12-09T10:42:16.774Z,7.81
2018-12-09T10:43:17.035Z,7.84
2018-12-09T10:44:16.313Z,7.82
2018-12-09T10:45:16.579Z,7.81
2018-12-09T10:46:16.836Z,7.85
2018-12-09T10:47:17.093Z,7.82
2018-12-09T10:48:16.348Z,7.85
2018-12-09T10:49:16.616Z,7.85
2018-12-09T10:50:16.889Z,7.84
2018-12-09T10:51:16.952Z,7.82
2018-12-09T10:52:16.213Z,7.85
2018-12-09T10:53:16.472Z,7.82
2018-12-09T10:54:16.738Z,7.85
2018-12-09T10:55:17.026Z,7.82
2018-12-09T10:56:16.286Z,7.81
2018-12-09T10:57:16.553Z,7.84
2018-12-09T10:58:16.823Z,7.88
2018-12-09T10:59:17.097Z,7.86
2018-12-09T11:00:16.373Z,7.82
2018-12-09T11:01:16.448Z,7.81
2018-12-09T11:02:16.718Z,7.80
2018-12-09T11:03:16.993Z,7.82
2018-12-09T11:04:16.261Z,7.80
2018-12-09T11:05:16.531Z,7.82
2018-12-09T11:06:16.799Z,7.82
2018-12-09T11:07:17.072Z,7.81
2018-12-09T11:08:16.715Z,7.80
2018-12-09T11:09:17.119Z,7.84
2018-12-09T11:10:16.396Z,7.82
2018-12-09T11:11:16.455Z,7.84
2018-12-09T11:12:16.725Z,7.82
2018-12-09T11:13:16.988Z,7.82
2018-12-09T11:14:16.252Z,7.84
2018-12-09T11:15:16.536Z,7.85
2018-12-09T11:16:16.807Z,7.78
2018-12-09T11:17:17.164Z,7.82
2018-12-09T11:18:16.436Z,7.82
2018-12-09T11:19:16.699Z,7.81
2018-12-09T11:20:17.001Z,7.89
2018-12-09T11:21:17.026Z,7.91
2018-12-09T11:22:16.306Z,7.89
2018-12-09T11:23:16.569Z,7.91
2018-12-09T11:24:16.842Z,7.93
2018-12-09T11:25:17.110Z,7.89
2018-12-09T11:26:16.397Z,7.89
2018-12-09T11:27:16.665Z,7.89
2018-12-09T11:28:16.924Z,7.91
2018-12-09T11:29:17.206Z,7.95
2018-12-09T11:30:16.492Z,7.99
2018-12-09T11:31:16.551Z,7.98
2018-12-09T11:32:16.814Z,7.98
2018-12-09T11:33:17.070Z,7.93
2018-12-09T11:34:16.341Z,7.92
2018-12-09T11:35:16.604Z,7.95
2018-12-09T11:36:16.868Z,7.92
2018-12-09T11:37:17.129Z,7.92
2018-12-09T11:38:16.382Z,7.88
2018-12-09T11:39:16.639Z,8.05
2018-12-09T11:40:16.925Z,7.96
2018-12-09T11:41:16.963Z,7.91
2018-12-09T11:42:16.239Z,7.93
2018-12-09T11:43:16.503Z,7.98
2018-12-09T11:44:16.766Z,7.96
2018-12-09T11:45:17.039Z,7.99
2018-12-09T11:46:16.298Z,7.93
2018-12-09T11:47:16.560Z,7.96
2018-12-09T11:48:16.823Z,8.03
2018-12-09T11:49:17.088Z,8.00
2018-12-09T11:50:16.358Z,7.93
2018-12-09T11:51:16.425Z,7.92
2018-12-09T11:52:16.697Z,7.95
2018-12-09T11:53:16.958Z,7.92
2018-12-09T11:54:16.215Z,7.93
2018-12-09T11:55:16.484Z,7.98
2018-12-09T11:56:16.743Z,7.92
2018-12-09T11:57:17.258Z,7.96
2018-12-09T11:58:16.530Z,7.89
2018-12-09T11:59:16.818Z,7.89
2018-12-09T12:00:17.163Z,7.86
2018-12-09T12:01:17.197Z,7.86
2018-12-09T12:02:19.930Z,7.89
2018-12-09T12:03:16.594Z,7.91
2018-12-09T12:04:16.860Z,7.84
2018-12-09T12:05:17.133Z,7.80
2018-12-09T12:06:16.366Z,7.82
2018-12-09T12:07:16.620Z,7.86
2018-12-09T12:08:16.916Z,7.81
2018-12-09T12:09:17.209Z,7.78
2018-12-09T12:10:16.482Z,7.77
2018-12-09T12:11:16.549Z,7.80
2018-12-09T12:12:16.804Z,7.77
2018-12-09T12:13:17.072Z,7.75
2018-12-09T12:14:16.343Z,7.75
2018-12-09T12:15:16.619Z,7.77
2018-12-09T12:16:16.886Z,7.78
2018-12-09T12:17:17.168Z,7.75
2018-12-09T12:18:16.429Z,7.74
2018-12-09T12:19:16.689Z,7.74
2018-12-09T12:20:16.959Z,7.74
2018-12-09T12:21:17.023Z,7.75
2018-12-09T12:22:16.287Z,7.74
2018-12-09T12:23:16.554Z,7.71
2018-12-09T12:24:16.816Z,7.72
2018-12-09T12:25:17.087Z,7.75
2018-12-09T12:26:16.358Z,7.75
2018-12-09T12:27:16.628Z,7.72
2018-12-09T12:28:16.885Z,7.74
2018-12-09T12:29:17.156Z,7.69
2018-12-09T12:30:16.461Z,7.68
2018-12-09T12:31:16.504Z,7.71
2018-12-09T12:32:16.773Z,7.71
2018-12-09T12:33:17.045Z,7.69
2018-12-09T12:34:16.294Z,7.69
2018-12-09T12:35:16.556Z,7.65
2018-12-09T12:36:16.820Z,7.65
2018-12-09T12:37:17.090Z,7.64
2018-12-09T12:38:16.353Z,7.64
2018-12-09T12:39:16.618Z,7.69
2018-12-09T12:40:16.916Z,7.68
2018-12-09T12:41:16.946Z,7.69
2018-12-09T12:42:17.212Z,7.72
2018-12-09T12:43:16.479Z,7.66
2018-12-09T12:44:16.738Z,7.72
2018-12-09T12:45:16.998Z,7.71
2018-12-09T12:46:16.261Z,7.69
2018-12-09T12:47:16.534Z,7.77
2018-12-09T12:48:16.801Z,7.80
2018-12-09T12:49:17.071Z,7.78
2018-12-09T12:50:16.339Z,7.80
2018-12-09T12:51:16.415Z,7.85
2018-12-09T12:52:16.684Z,7.72
2018-12-09T12:53:16.954Z,7.74
2018-12-09T12:54:17.218Z,7.78
2018-12-09T12:55:16.494Z,7.80
2018-12-09T12:56:16.745Z,7.77
2018-12-09T12:57:17.018Z,7.75
2018-12-09T12:58:16.377Z,7.75
2018-12-09T12:59:16.638Z,7.82
2018-12-09T13:00:16.920Z,7.88
2018-12-09T13:01:16.979Z,7.74
2018-12-09T13:02:16.239Z,7.74
2018-12-09T13:03:16.498Z,7.75
2018-12-09T13:04:16.750Z,7.72
2018-12-09T13:05:17.019Z,7.72
2018-12-09T13:06:16.297Z,7.86
2018-12-09T13:07:16.560Z,7.81
2018-12-09T13:08:16.825Z,7.75
2018-12-09T13:09:17.090Z,7.78
2018-12-09T13:10:16.356Z,7.77
2018-12-09T13:11:16.420Z,7.75
2018-12-09T13:12:16.694Z,7.71
2018-12-09T13:13:16.965Z,7.71
2018-12-09T13:14:16.235Z,7.62
2018-12-09T13:15:16.501Z,7.53
2018-12-09T13:16:16.765Z,7.53
2018-12-09T13:17:17.032Z,7.37
2018-12-09T13:18:16.315Z,7.37